Time;durP1;ratioP1;P1;durP2;ratioP2;P2;SDS_P1;SDS_P2;PMS_P1;PMS_P2;Temp;Humidity;BMP_temperature;BMP_pressure;BME280_temperature;BME280_humidity;BME280_pressure;Samples;Min_cycle;Max_cycle;Signal;HPM_P1;HPM_P2
2021/05/30 00:00:38;;;;;;;;;;;;;;;21.03;54.40;102215.53;2097508;28;4594;-79
2021/05/30 00:01:39;;;;;;;;;;;;;;;21.03;54.39;102218.38;2098832;28;3865;-83
2021/05/30 00:02:41;;;;;;;;;;;;;;;21.03;54.40;102217.53;2098700;28;4067;-85
2021/05/30 00:03:42;;;;;;;;;;;;;;;21.03;54.60;102214.69;2097936;28;3886;-84
2021/05/30 00:04:43;;;;;;;;;;;;;;;21.03;54.56;102218.38;2098868;28;4120;-83
2021/05/30 00:05:44;;;;;;;;;;;;;;;21.03;54.48;102217.53;2097398;28;4071;-84
2021/05/30 00:06:46;;;;;;;;;;;;;;;21.03;54.37;102214.69;2098728;28;4030;-85
2021/05/30 00:07:47;;;;;;;;;;;;;;;21.03;54.56;102217.53;2099291;28;4111;-85
2021/05/30 00:08:48;;;;;;;;;;;;;;;21.04;54.46;102216.41;2098660;28;4005;-84
2021/05/30 00:09:49;;;;;;;;;;;;;;;21.03;54.56;102221.22;2098566;28;4047;-82
2021/05/30 00:10:51;;;;;;;;;;;;;;;21.04;54.43;102219.25;2098024;28;3996;-82
2021/05/30 00:11:52;;;;;;;;;;;;;;;21.04;54.40;102219.25;2098311;28;3848;-84
2021/05/30 00:12:53;;;;;;;;;;;;;;;21.04;54.54;102216.41;2098622;28;4144;-84
2021/05/30 00:13:56;;;;;;;;;;;;;;;21.04;54.30;102217.25;2097956;28;4026;-81
2021/05/30 00:14:57;;;;;;;;;;;;;;;21.04;54.63;102219.25;2097428;28;3832;-83
2021/05/30 00:15:58;;;;;;;;;;;;;;;21.04;54.55;102216.41;2097935;28;5469;-84
2021/05/30 00:16:59;;;;;;;;;;;;;;;21.05;54.50;102220.91;2097847;28;4055;-84
2021/05/30 00:18:00;;;;;;;;;;;;;;;21.04;54.60;102216.41;2098329;28;4002;-84
2021/05/30 00:19:02;;;;;;;;;;;;;;;21.04;54.49;102213.56;2097474;28;3864;-83
2021/05/30 00:20:03;;;;;;;;;;;;;;;21.05;54.75;102224.59;2098154;28;4083;-83
2021/05/30 00:21:07;;;;;;;;;;;;;;;21.05;54.59;102218.91;2095376;28;3972;-80
2021/05/30 00:22:08;;;;;;;;;;;;;;;21.05;54.43;102221.75;2089172;28;3979;-79
2021/05/30 00:23:09;;;;;;;;;;;;;;;21.06;54.67;102222.59;2089571;28;4002;-79
2021/05/30 00:24:10;;;;;;;;;;;;;;;21.05;54.67;102218.91;2095873;28;5182;-79
2021/05/30 00:25:11;;;;;;;;;;;;;;;21.05;54.54;102221.75;2098297;28;3799;-78
2021/05/30 00:26:13;;;;;;;;;;;;;;;21.04;54.73;102220.09;2097617;28;3993;-80
2021/05/30 00:27:14;;;;;;;;;;;;;;;21.05;54.57;102221.75;2097403;28;4216;-81
2021/05/30 00:28:15;;;;;;;;;;;;;;;21.06;54.57;102222.59;2097088;28;5118;-83
2021/05/30 00:29:16;;;;;;;;;;;;;;;21.05;54.58;102221.75;2095441;28;4008;-75
2021/05/30 00:30:17;;;;;;;;;;;;;;;21.06;54.78;102219.75;2096344;28;4009;-76
2021/05/30 00:31:19;;;;;;;;;;;;;;;21.05;54.52;102223.75;2097290;28;3833;-75
2021/05/30 00:32:20;;;;;;;;;;;;;;;21.06;54.63;102225.44;2097835;28;4997;-81
2021/05/30 00:33:21;;;;;;;;;;;;;;;21.06;54.75;102222.59;2098062;28;3847;-80
2021/05/30 00:34:23;;;;;;;;;;;;;;;21.06;54.71;102225.44;2096976;28;3970;-82
2021/05/30 00:35:24;;;;;;;;;;;;;;;21.05;54.63;102221.75;2098439;28;3996;-75
2021/05/30 00:36:25;;;;;;;;;;;;;;;21.06;54.81;102219.75;2094650;28;4076;-82
2021/05/30 00:37:26;;;;;;;;;;;;;;;21.06;54.83;102226.31;2097505;28;4102;-78
2021/05/30 00:38:27;;;;;;;;;;;;;;;21.06;54.77;102222.59;2097550;28;6035;-78
2021/05/30 00:39:29;;;;;;;;;;;;;;;21.06;54.74;102219.75;2096074;28;6208;-79
2021/05/30 00:40:30;;;;;;;;;;;;;;;21.07;54.69;102221.44;2097457;28;4080;-79
2021/05/30 00:41:31;;;;;;;;;;;;;;;21.06;54.77;102214.91;2097204;28;3954;-82
2021/05/30 00:42:32;;;;;;;;;;;;;;;21.06;54.80;102214.91;2097683;28;3982;-80
2021/05/30 00:43:33;;;;;;;;;;;;;;;21.06;54.81;102214.91;2097525;28;3710;-80
2021/05/30 00:44:35;;;;;;;;;;;;;;;21.07;54.65;102212.91;2096098;28;3861;-83
2021/05/30 00:45:36;;;;;;;;;;;;;;;21.06;54.70;102214.91;2097618;28;3817;-86
2021/05/30 00:46:37;;;;;;;;;;;;;;;21.06;54.77;102216.91;2096454;28;3945;-86
2021/05/30 00:47:38;;;;;;;;;;;;;;;21.05;54.70;102213.22;2097609;28;5106;-77
2021/05/30 00:48:40;;;;;;;;;;;;;;;21.06;54.70;102219.75;2098394;28;4196;-85
2021/05/30 00:49:41;;;;;;;;;;;;;;;21.06;54.45;102223.47;2097068;28;4946;-85
2021/05/30 00:50:43;;;;;;;;;;;;;;;21.06;54.65;102217.75;2098622;28;4049;-84
2021/05/30 00:51:44;;;;;;;;;;;;;;;21.06;54.53;102226.31;2098427;28;4009;-84
2021/05/30 00:52:45;;;;;;;;;;;;;;;21.06;54.47;102225.44;2097401;28;4089;-85
2021/05/30 00:53:46;;;;;;;;;;;;;;;21.06;54.63;102225.44;2097665;28;4194;-84
2021/05/30 00:54:47;;;;;;;;;;;;;;;21.05;54.51;102216.06;2098176;28;3876;-85
2021/05/30 00:55:49;;;;;;;;;;;;;;;21.05;54.57;102215.22;2097974;28;3891;-85
2021/05/30 00:56:50;;;;;;;;;;;;;;;21.07;54.68;102227.13;2098289;28;4011;-84
2021/05/30 00:57:51;;;;;;;;;;;;;;;21.06;54.60;102229.16;2098600;28;3881;-85
2021/05/30 00:58:52;;;;;;;;;;;;;;;21.06;54.52;102220.63;2097408;28;4008;-85
2021/05/30 00:59:53;;;;;;;;;;;;;;;21.07;54.57;102224.28;2097258;28;3854;-85
2021/05/30 01:00:55;;;;;;;;;;;;;;;21.06;54.65;102222.59;2096618;28;4007;-85
2021/05/30 01:01:56;;;;;;;;;;;;;;;21.05;54.46;102223.75;2097707;28;3854;-85
2021/05/30 01:02:57;;;;;;;;;;;;;;;21.07;54.48;102227.13;2096433;28;4025;-86
2021/05/30 01:03:58;;;;;;;;;;;;;;;21.06;54.52;102226.31;2097134;28;3864;-79
2021/05/30 01:05:00;;;;;;;;;;;;;;;21.07;54.63;102229.97;2097367;28;5320;-79
2021/05/30 01:06:01;;;;;;;;;;;;;;;21.08;54.68;102220.28;2097453;28;3857;-86
2021/05/30 01:07:02;;;;;;;;;;;;;;;21.07;54.56;102224.28;2097288;28;5109;-87
2021/05/30 01:08:03;;;;;;;;;;;;;;;21.07;54.60;102219.44;2098367;28;3997;-87
2021/05/30 01:09:04;;;;;;;;;;;;;;;21.07;54.53;102222.28;2098375;28;1103;-87
2021/05/30 01:10:06;;;;;;;;;;;;;;;21.07;54.73;102224.28;2097088;28;3953;-87
2021/05/30 01:11:07;;;;;;;;;;;;;;;21.07;54.54;102219.44;2098172;28;4971;-87
2021/05/30 01:12:08;;;;;;;;;;;;;;;21.06;54.65;102217.75;2097609;28;5189;-87
2021/05/30 01:13:10;;;;;;;;;;;;;;;21.07;54.48;102212.91;2097736;28;3925;-88
2021/05/30 01:14:11;;;;;;;;;;;;;;;21.07;54.53;102215.75;2099802;28;4049;-85
2021/05/30 01:15:12;;;;;;;;;;;;;;;21.07;54.57;102216.59;2097972;28;4027;-77
2021/05/30 01:16:13;;;;;;;;;;;;;;;21.07;54.52;102213.75;2097394;28;3740;-78
2021/05/30 01:17:15;;;;;;;;;;;;;;;21.08;54.70;102208.91;2097930;28;6302;-77
2021/05/30 01:18:16;;;;;;;;;;;;;;;21.08;54.81;102208.91;2098108;28;4047;-77
2021/05/30 01:19:18;;;;;;;;;;;;;;;21.08;54.61;102209.72;2092944;28;4005;-77
2021/05/30 01:20:19;;;;;;;;;;;;;;;21.08;54.73;102203.19;2095163;28;4002;-78
2021/05/30 01:21:21;;;;;;;;;;;;;;;21.07;54.54;102208.06;2097756;28;4120;-78
2021/05/30 01:22:22;;;;;;;;;;;;;;;21.07;54.63;102204.38;2096106;28;4015;-77
2021/05/30 01:23:23;;;;;;;;;;;;;;;21.08;54.72;102209.72;2097140;28;4068;-76
2021/05/30 01:24:24;;;;;;;;;;;;;;;21.08;54.51;102206.03;2097074;28;3881;-77
2021/05/30 01:25:26;;;;;;;;;;;;;;;21.08;54.72;102206.03;2097169;28;3982;-77
2021/05/30 01:26:27;;;;;;;;;;;;;;;21.08;54.69;102208.91;2096756;28;3812;-77
2021/05/30 01:27:28;;;;;;;;;;;;;;;21.07;54.61;102202.38;2095568;28;4095;-78
2021/05/30 01:28:29;;;;;;;;;;;;;;;21.08;54.73;102206.03;2094042;28;4011;-78
2021/05/30 01:29:30;;;;;;;;;;;;;;;21.08;54.63;102203.19;2095457;28;3981;-79
2021/05/30 01:30:32;;;;;;;;;;;;;;;21.08;54.66;102206.03;2095061;28;3937;-79
2021/05/30 01:31:33;;;;;;;;;;;;;;;21.09;54.55;102210.59;2095368;28;4002;-78
2021/05/30 01:32:34;;;;;;;;;;;;;;;21.08;54.54;102208.91;2096169;28;3846;-79
2021/05/30 01:33:35;;;;;;;;;;;;;;;21.09;54.57;102213.44;2096194;28;3822;-79
2021/05/30 01:34:37;;;;;;;;;;;;;;;21.08;54.64;102215.41;2097042;28;5431;-79
2021/05/30 01:35:38;;;;;;;;;;;;;;;21.08;54.75;102206.88;2097108;28;3850;-79
2021/05/30 01:36:39;;;;;;;;;;;;;;;21.08;54.55;102208.91;2097043;28;4419;-79
2021/05/30 01:37:40;;;;;;;;;;;;;;;21.08;54.57;102204.03;2096989;28;3874;-79
2021/05/30 01:38:42;;;;;;;;;;;;;;;21.08;54.73;102208.91;2095704;28;4095;-79
2021/05/30 01:39:43;;;;;;;;;;;;;;;21.08;54.53;102203.19;2097172;28;3839;-79
2021/05/30 01:40:44;;;;;;;;;;;;;;;21.07;54.51;102208.06;2097015;28;4084;-79
2021/05/30 01:41:46;;;;;;;;;;;;;;;21.09;54.54;102207.75;2097400;28;5099;-79
2021/05/30 01:42:47;;;;;;;;;;;;;;;21.08;54.45;102215.41;2094842;28;4088;-79
2021/05/30 01:43:48;;;;;;;;;;;;;;;21.08;54.61;102215.41;2096759;28;4050;-79
2021/05/30 01:44:49;;;;;;;;;;;;;;;21.09;54.52;102217.13;2097523;28;4003;-79
2021/05/30 01:45:50;;;;;;;;;;;;;;;21.08;54.53;102218.25;2096053;28;3853;-79
2021/05/30 01:46:52;;;;;;;;;;;;;;;21.09;54.57;102207.75;2096816;28;3886;-78
2021/05/30 01:47:53;;;;;;;;;;;;;;;21.09;54.53;102219.13;2097355;28;4010;-77
2021/05/30 01:48:54;;;;;;;;;;;;;;;21.10;54.51;102215.13;2096543;28;4007;-78
2021/05/30 01:49:55;;;;;;;;;;;;;;;21.09;54.77;102214.28;2097828;28;3880;-78
2021/05/30 01:50:57;;;;;;;;;;;;;;;21.09;54.71;102217.13;2096469;28;3993;-78
2021/05/30 01:51:58;;;;;;;;;;;;;;;21.10;54.73;102212.25;2096136;28;4036;-78
2021/05/30 01:53:06;;;;;;;;;;;;;;;21.09;54.71;102214.28;2096656;28;4015;-78
2021/05/30 01:54:09;;;;;;;;;;;;;;;21.09;54.75;102217.13;2096688;28;3990;-78
2021/05/30 01:55:18;;;;;;;;;;;;;;;21.10;54.67;102215.13;2094046;28;4031;-78
2021/05/30 01:57:39;;;;;;;;;;;;;;;21.11;54.74;102219.63;2096429;28;4053;-78
2021/05/30 01:58:43;;;;;;;;;;;;;;;21.10;54.68;102213.09;2096742;28;3927;-78
2021/05/30 01:59:45;;;;;;;;;;;;;;;21.10;54.67;102215.13;2096176;28;4373;-78
2021/05/30 02:00:48;;;;;;;;;;;;;;;21.11;54.67;102222.47;2096513;28;3922;-78
2021/05/30 02:01:49;;;;;;;;;;;;;;;21.11;54.77;102213.94;2096748;28;3757;-76
2021/05/30 02:02:51;;;;;;;;;;;;;;;21.10;54.69;102220.81;2097530;28;3895;-76
2021/05/30 02:03:52;;;;;;;;;;;;;;;21.11;54.71;102225.31;2096363;28;4361;-75
2021/05/30 02:04:54;;;;;;;;;;;;;;;21.10;54.87;102221.63;2097354;28;4142;-75
2021/05/30 02:05:55;;;;;;;;;;;;;;;21.11;54.56;102217.63;2097144;28;4369;-75
2021/05/30 02:06:56;;;;;;;;;;;;;;;21.10;54.88;102221.63;2095838;28;4444;-76
2021/05/30 02:07:57;;;;;;;;;;;;;;;21.10;54.77;102224.47;2097605;28;4031;-75
2021/05/30 02:08:59;;;;;;;;;;;;;;;21.10;54.76;102224.47;2096795;28;4000;-76
2021/05/30 02:10:00;;;;;;;;;;;;;;;21.10;54.79;102224.47;2096438;28;4016;-76
2021/05/30 02:11:01;;;;;;;;;;;;;;;21.10;54.71;102224.47;2097111;28;3845;-76
2021/05/30 02:12:02;;;;;;;;;;;;;;;21.10;54.80;102221.63;2087755;28;4035;-76
2021/05/30 02:13:04;;;;;;;;;;;;;;;21.10;54.71;102221.63;2087925;28;4007;-76
2021/05/30 02:14:05;;;;;;;;;;;;;;;21.10;54.65;102223.66;2096835;28;3739;-76
2021/05/30 02:15:07;;;;;;;;;;;;;;;21.10;54.72;102230.19;2096959;28;6464;-76
2021/05/30 02:16:08;;;;;;;;;;;;;;;21.11;54.67;102231.00;2096610;28;4255;-75
2021/05/30 02:17:09;;;;;;;;;;;;;;;21.10;54.66;102227.34;2096541;28;4056;-75
2021/05/30 02:18:10;;;;;;;;;;;;;;;21.10;54.70;102229.34;2096966;28;4109;-76
2021/05/30 02:19:11;;;;;;;;;;;;;;;21.11;54.82;102231.00;2097036;28;3935;-81
2021/05/30 02:20:13;;;;;;;;;;;;;;;21.11;54.79;102229.00;2087487;28;3933;-81
2021/05/30 02:21:14;;;;;;;;;;;;;;;21.11;54.87;102228.16;2088497;28;3956;-81
2021/05/30 02:22:15;;;;;;;;;;;;;;;21.10;54.85;102233.03;2095954;28;4005;-83
2021/05/30 02:23:18;;;;;;;;;;;;;;;21.11;54.69;102228.16;2096882;28;4109;-82
2021/05/30 02:24:19;;;;;;;;;;;;;;;21.11;54.68;102225.31;2096648;28;4026;-81
2021/05/30 02:25:20;;;;;;;;;;;;;;;21.12;54.80;102224.19;2095965;28;4016;-83
2021/05/30 02:26:22;;;;;;;;;;;;;;;21.11;54.71;102226.16;2087039;28;4000;-82
2021/05/30 02:27:23;;;;;;;;;;;;;;;21.11;54.67;102226.16;2088452;28;5378;-80
2021/05/30 02:28:24;;;;;;;;;;;;;;;21.10;54.75;102226.50;2095283;28;5044;-81
2021/05/30 02:29:25;;;;;;;;;;;;;;;21.11;54.72;102233.88;2096292;28;3967;-81
2021/05/30 02:30:26;;;;;;;;;;;;;;;21.10;54.77;102230.19;2096384;28;3962;-81
2021/05/30 02:31:28;;;;;;;;;;;;;;;21.11;54.63;102233.88;2096633;28;4093;-81
2021/05/30 02:32:29;;;;;;;;;;;;;;;21.11;54.65;102231.84;2088195;28;3986;-81
2021/05/30 02:33:30;;;;;;;;;;;;;;;21.11;54.75;102228.16;2087746;28;4201;-81
2021/05/30 02:34:31;;;;;;;;;;;;;;;21.11;54.81;102231.84;2096622;28;3827;-81
2021/05/30 02:35:33;;;;;;;;;;;;;;;21.11;54.62;102237.53;2095680;28;4006;-81
2021/05/30 02:36:34;;;;;;;;;;;;;;;21.11;54.80;102234.69;2096429;28;4115;-81
2021/05/30 02:37:35;;;;;;;;;;;;;;;21.12;54.83;102232.72;2097338;28;3831;-81
2021/05/30 02:38:36;;;;;;;;;;;;;;;21.11;54.77;102234.69;2097477;28;3985;-81
2021/05/30 02:39:37;;;;;;;;;;;;;;;21.10;54.59;102233.03;2097470;28;3825;-81
2021/05/30 02:40:39;;;;;;;;;;;;;;;21.11;54.63;102231.84;2097907;28;5213;-77
2021/05/30 02:41:40;;;;;;;;;;;;;;;21.11;54.71;102240.38;2099518;28;3844;-80
2021/05/30 02:42:41;;;;;;;;;;;;;;;21.11;54.81;102243.22;2098487;28;5309;-81
2021/05/30 02:43:42;;;;;;;;;;;;;;;21.11;54.63;102242.41;2098633;28;4324;-80
2021/05/30 02:44:43;;;;;;;;;;;;;;;21.11;54.74;102245.25;2098307;28;3921;-78
2021/05/30 02:45:45;;;;;;;;;;;;;;;21.11;54.62;102243.22;2097880;28;4001;-81
2021/05/30 02:46:46;;;;;;;;;;;;;;;21.11;54.80;102248.94;2098223;28;4019;-83
2021/05/30 02:47:47;;;;;;;;;;;;;;;21.11;54.58;102242.41;2097836;28;4011;-78
2021/05/30 02:48:50;;;;;;;;;;;;;;;21.12;54.64;102241.25;2098781;28;3999;-77
2021/05/30 02:49:51;;;;;;;;;;;;;;;21.11;54.79;102236.72;2090150;28;3899;-77
2021/05/30 02:51:01;;;;;;;;;;;;;;;21.12;54.88;102241.25;2088250;28;4968;-77
2021/05/30 02:52:02;;;;;;;;;;;;;;;21.11;54.72;102242.41;2097713;28;4046;-76
2021/05/30 02:53:03;;;;;;;;;;;;;;;21.12;54.64;102252.63;2098989;28;3879;-76
2021/05/30 02:54:05;;;;;;;;;;;;;;;21.11;54.78;102243.22;2099026;28;4832;-76
2021/05/30 02:55:06;;;;;;;;;;;;;;;21.12;54.76;102241.25;2097330;28;3859;-76
2021/05/30 02:56:07;;;;;;;;;;;;;;;21.11;54.79;102236.72;2098682;28;4089;-76
2021/05/30 02:57:08;;;;;;;;;;;;;;;21.11;54.69;102242.41;2098681;28;4160;-77
2021/05/30 02:58:09;;;;;;;;;;;;;;;21.11;54.68;102242.41;2097555;28;5096;-76
2021/05/30 02:59:11;;;;;;;;;;;;;;;21.11;54.79;102239.56;2097215;28;3979;-76
2021/05/30 03:00:12;;;;;;;;;;;;;;;21.11;54.69;102245.25;2097453;28;4101;-76
2021/05/30 03:01:13;;;;;;;;;;;;;;;21.11;54.57;102246.09;2098058;28;3995;-75
2021/05/30 03:02:14;;;;;;;;;;;;;;;21.11;54.70;102239.56;2098714;28;3998;-77
2021/05/30 03:03:16;;;;;;;;;;;;;;;21.11;54.69;102240.38;2098747;28;3855;-76
2021/05/30 03:04:17;;;;;;;;;;;;;;;21.11;54.74;102236.72;2098034;28;4012;-76
2021/05/30 03:05:18;;;;;;;;;;;;;;;21.11;54.58;102236.72;2099001;28;4120;-76
2021/05/30 03:06:24;;;;;;;;;;;;;;;21.10;54.64;102241.56;2096945;28;4051;-77
2021/05/30 03:07:25;;;;;;;;;;;;;;;21.11;54.74;102240.38;2098631;28;3986;-76
2021/05/30 03:08:26;;;;;;;;;;;;;;;21.11;54.71;102240.38;2098704;28;3823;-76
2021/05/30 03:09:28;;;;;;;;;;;;;;;21.11;54.79;102245.25;2097878;28;4081;-76
2021/05/30 03:10:29;;;;;;;;;;;;;;;21.10;54.48;102244.41;2098245;28;3815;-76
2021/05/30 03:11:30;;;;;;;;;;;;;;;21.12;54.62;102246.94;2097871;28;3854;-78
2021/05/30 03:12:31;;;;;;;;;;;;;;;21.11;54.70;102245.25;2098353;28;3849;-76
2021/05/30 03:13:33;;;;;;;;;;;;;;;21.11;54.64;102243.22;2097588;28;3824;-76
2021/05/30 03:14:34;;;;;;;;;;;;;;;21.11;54.64;102243.22;2098631;28;3795;-77
2021/05/30 03:15:35;;;;;;;;;;;;;;;21.11;54.65;102248.09;2098978;28;3967;-76
2021/05/30 03:16:37;;;;;;;;;;;;;;;21.11;54.69;102246.09;2098163;28;3839;-82
2021/05/30 03:17:38;;;;;;;;;;;;;;;21.10;54.62;102243.56;2098118;28;3935;-82
2021/05/30 03:18:40;;;;;;;;;;;;;;;21.11;54.60;102246.09;2097507;28;4064;-77
2021/05/30 03:19:41;;;;;;;;;;;;;;;21.11;54.64;102246.09;2097778;28;4022;-78
2021/05/30 03:20:42;;;;;;;;;;;;;;;21.11;54.71;102256.63;2098507;28;4380;-78
2021/05/30 03:21:44;;;;;;;;;;;;;;;21.11;54.64;102248.09;2098152;28;4012;-78
2021/05/30 03:22:45;;;;;;;;;;;;;;;21.11;54.57;102245.25;2098010;28;4030;-77
2021/05/30 03:23:46;;;;;;;;;;;;;;;21.11;54.49;102248.09;2097656;28;4030;-78
2021/05/30 03:24:47;;;;;;;;;;;;;;;21.11;54.68;102248.09;2097829;28;4002;-79
2021/05/30 03:25:49;;;;;;;;;;;;;;;21.12;54.66;102241.25;2097531;28;4487;-79
2021/05/30 03:26:51;;;;;;;;;;;;;;;21.11;54.71;102251.78;2098145;28;3870;-79
2021/05/30 03:27:52;;;;;;;;;;;;;;;21.11;54.70;102250.94;2098851;28;4078;-78
2021/05/30 03:28:53;;;;;;;;;;;;;;;21.11;54.72;102248.94;2098484;28;6655;-79
2021/05/30 03:29:56;;;;;;;;;;;;;;;21.12;54.58;102249.78;2097006;28;3999;-78
2021/05/30 03:30:58;;;;;;;;;;;;;;;21.12;54.62;102253.47;2098139;28;4339;-77
2021/05/30 03:31:59;;;;;;;;;;;;;;;21.12;54.75;102249.78;2095732;28;4166;-74
2021/05/30 03:33:00;;;;;;;;;;;;;;;21.12;54.76;102250.63;2097081;28;4092;-85
2021/05/30 03:34:02;;;;;;;;;;;;;;;21.13;54.79;102251.47;2098009;28;4339;-75
2021/05/30 03:35:03;;;;;;;;;;;;;;;21.13;54.76;102248.63;2096994;28;4126;-76
2021/05/30 03:36:07;;;;;;;;;;;;;;;21.13;54.94;102251.47;2098136;28;4068;-81
2021/05/30 03:37:09;;;;;;;;;;;;;;;21.12;54.99;102247.78;2096224;28;4309;-82
2021/05/30 03:38:12;;;;;;;;;;;;;;;21.12;54.98;102256.31;2096630;28;4008;-81
2021/05/30 03:39:13;;;;;;;;;;;;;;;21.12;54.91;102247.78;2099057;28;3788;-81
2021/05/30 03:40:28;;;;;;;;;;;;;;;21.13;54.88;102251.47;2097957;28;4174;-84
2021/05/30 03:41:32;;;;;;;;;;;;;;;21.13;55.04;102248.63;2098557;28;3937;-81
2021/05/30 03:42:36;;;;;;;;;;;;;;;21.13;54.96;102251.47;2095890;28;3982;-82
2021/05/30 03:43:37;;;;;;;;;;;;;;;21.13;54.88;102251.47;2098814;28;4295;-82
2021/05/30 03:44:39;;;;;;;;;;;;;;;21.12;54.83;102252.63;2098675;28;3788;-77
2021/05/30 03:45:40;;;;;;;;;;;;;;;21.12;54.96;102252.63;2097387;28;3891;-79
2021/05/30 03:46:41;;;;;;;;;;;;;;;21.12;55.03;102253.47;2098703;28;4045;-81
2021/05/30 03:47:43;;;;;;;;;;;;;;;21.12;54.95;102250.63;2098588;28;4016;-83
2021/05/30 03:48:44;;;;;;;;;;;;;;;21.13;55.02;102254.31;2098540;28;4012;-80
2021/05/30 03:49:46;;;;;;;;;;;;;;;21.12;55.06;102256.31;2098644;28;4004;-80
2021/05/30 03:50:50;;;;;;;;;;;;;;;21.12;55.00;102250.63;2098437;28;4020;-80
2021/05/30 03:51:51;;;;;;;;;;;;;;;21.12;55.08;102249.78;2097319;28;4068;-80
2021/05/30 03:52:52;;;;;;;;;;;;;;;21.13;55.03;102251.47;2099223;28;4162;-80
2021/05/30 03:53:54;;;;;;;;;;;;;;;21.12;54.90;102244.09;2098707;28;3846;-79
2021/05/30 03:54:55;;;;;;;;;;;;;;;21.12;55.08;102249.78;2098440;28;4016;-81
2021/05/30 03:55:56;;;;;;;;;;;;;;;21.13;54.94;102249.47;2097970;28;4089;-80
2021/05/30 03:56:57;;;;;;;;;;;;;;;21.13;54.96;102245.78;2098116;28;4023;-79
2021/05/30 03:57:58;;;;;;;;;;;;;;;21.13;55.19;102242.94;2097070;28;3985;-77
2021/05/30 03:59:00;;;;;;;;;;;;;;;21.14;55.15;102244.59;2099008;28;3881;-79
2021/05/30 04:00:01;;;;;;;;;;;;;;;21.13;55.25;102237.25;2098361;28;4005;-79
2021/05/30 04:01:03;;;;;;;;;;;;;;;21.14;55.29;102250.28;2098407;28;4004;-79
2021/05/30 04:02:04;;;;;;;;;;;;;;;21.14;55.36;102247.44;2097411;28;4034;-80
2021/05/30 04:03:05;;;;;;;;;;;;;;;21.13;55.25;102245.78;2095269;28;3860;-81
2021/05/30 04:04:06;;;;;;;;;;;;;;;21.14;55.25;102244.59;2098291;28;3838;-81
2021/05/30 04:05:07;;;;;;;;;;;;;;;21.14;55.43;102247.44;2097629;28;3862;-80
2021/05/30 04:06:09;;;;;;;;;;;;;;;21.14;55.45;102244.59;2098451;28;5073;-81
2021/05/30 04:07:10;;;;;;;;;;;;;;;21.14;55.42;102241.75;2095892;28;3846;-79
2021/05/30 04:08:11;;;;;;;;;;;;;;;21.14;55.39;102241.75;2098402;28;3985;-82
2021/05/30 04:09:12;;;;;;;;;;;;;;;21.14;55.58;102244.59;2099062;28;4180;-82
2021/05/30 04:10:13;;;;;;;;;;;;;;;21.14;55.56;102247.44;2097604;28;4014;-81
2021/05/30 04:11:15;;;;;;;;;;;;;;;21.14;55.45;102238.91;2098860;28;4105;-80
2021/05/30 04:12:16;;;;;;;;;;;;;;;21.14;55.48;102244.59;2097281;28;3881;-81
2021/05/30 04:13:17;;;;;;;;;;;;;;;21.15;55.54;102248.31;2098429;28;3855;-84
2021/05/30 04:14:19;;;;;;;;;;;;;;;21.14;55.81;102241.75;2099248;28;3857;-82
2021/05/30 04:15:20;;;;;;;;;;;;;;;21.14;55.58;102247.44;2098567;28;4023;-81
2021/05/30 04:16:21;;;;;;;;;;;;;;;21.14;55.49;102247.44;2098155;28;4383;-81
2021/05/30 04:17:22;;;;;;;;;;;;;;;21.15;55.83;102239.78;2097880;28;4002;-82
2021/05/30 04:18:24;;;;;;;;;;;;;;;21.15;55.76;102251.16;2098793;28;4066;-81
2021/05/30 04:19:25;;;;;;;;;;;;;;;21.16;55.82;102244.28;2098066;28;5057;-80
2021/05/30 04:20:26;;;;;;;;;;;;;;;21.16;56.01;102255.69;2098728;28;4041;-84
2021/05/30 04:21:27;;;;;;;;;;;;;;;21.16;55.94;102245.13;2098864;28;3925;-84
2021/05/30 04:22:29;;;;;;;;;;;;;;;21.15;55.85;102249.16;2097304;28;3972;-83
2021/05/30 04:23:30;;;;;;;;;;;;;;;21.15;55.97;102246.31;2098152;28;3986;-83
2021/05/30 04:24:31;;;;;;;;;;;;;;;21.15;56.02;102249.16;2097756;28;3956;-85
2021/05/30 04:25:32;;;;;;;;;;;;;;;21.15;55.78;102242.63;2098176;28;4079;-83
2021/05/30 04:26:33;;;;;;;;;;;;;;;21.14;55.93;102253.13;2098296;28;4025;-84
2021/05/30 04:27:38;;;;;;;;;;;;;;;21.15;55.99;102251.16;2097230;28;3816;-81
2021/05/30 04:28:39;;;;;;;;;;;;;;;21.14;55.96;102250.28;2098021;28;6001;-73
2021/05/30 04:29:40;;;;;;;;;;;;;;;21.15;56.09;102256.84;2098391;28;4023;-75
2021/05/30 04:30:41;;;;;;;;;;;;;;;21.15;56.04;102257.69;2096723;28;4002;-74
2021/05/30 04:31:43;;;;;;;;;;;;;;;21.15;55.85;102254.00;2097629;28;4029;-75
2021/05/30 04:32:44;;;;;;;;;;;;;;;21.15;55.85;102254.00;2098294;28;3816;-74
2021/05/30 04:33:45;;;;;;;;;;;;;;;21.15;56.18;102260.53;2097361;28;4007;-75
2021/05/30 04:34:47;;;;;;;;;;;;;;;21.16;56.02;102264.22;2098848;28;3853;-75
2021/05/30 04:35:48;;;;;;;;;;;;;;;21.16;55.96;102258.53;2098103;28;4037;-75
2021/05/30 04:36:49;;;;;;;;;;;;;;;21.15;56.19;102260.53;2098485;28;4055;-75
2021/05/30 04:37:50;;;;;;;;;;;;;;;21.15;55.97;102263.38;2097335;28;3863;-75
2021/05/30 04:38:51;;;;;;;;;;;;;;;21.15;56.24;102256.84;2097862;28;4121;-75
2021/05/30 04:39:53;;;;;;;;;;;;;;;21.15;56.21;102252.00;2097221;28;5182;-76
2021/05/30 04:40:54;;;;;;;;;;;;;;;21.15;56.19;102265.38;2097875;28;3916;-75
2021/05/30 04:41:55;;;;;;;;;;;;;;;21.15;55.96;102252.00;2098082;28;3876;-76
2021/05/30 04:42:56;;;;;;;;;;;;;;;21.14;56.06;102256.00;2097575;28;4037;-75
2021/05/30 04:43:58;;;;;;;;;;;;;;;21.15;56.18;102257.69;2097578;28;3836;-75
2021/05/30 04:45:00;;;;;;;;;;;;;;;21.15;55.92;102262.53;2097800;28;4037;-75
2021/05/30 04:46:02;;;;;;;;;;;;;;;21.15;56.22;102260.53;2096965;28;4010;-75
2021/05/30 04:47:04;;;;;;;;;;;;;;;21.16;56.00;102261.38;2097672;28;4048;-75
2021/05/30 04:48:05;;;;;;;;;;;;;;;21.15;56.00;102266.22;2097541;28;3874;-75
2021/05/30 04:49:06;;;;;;;;;;;;;;;21.14;55.96;102264.53;2097183;28;4079;-75
2021/05/30 04:50:07;;;;;;;;;;;;;;;21.15;56.01;102262.53;2097016;28;4042;-75
2021/05/30 04:51:14;;;;;;;;;;;;;;;21.14;56.16;102264.53;2098280;28;3790;-75
2021/05/30 04:52:15;;;;;;;;;;;;;;;21.15;56.12;102263.38;2097076;28;3840;-75
2021/05/30 04:53:17;;;;;;;;;;;;;;;21.15;55.88;102271.91;2098225;28;3899;-74
2021/05/30 04:54:18;;;;;;;;;;;;;;;21.16;55.97;102272.75;2097889;28;3952;-76
2021/05/30 04:55:19;;;;;;;;;;;;;;;21.15;55.99;102268.25;2097286;28;3977;-77
2021/05/30 04:56:21;;;;;;;;;;;;;;;21.13;56.00;102262.84;2096890;28;3698;-77
2021/05/30 04:57:22;;;;;;;;;;;;;;;21.15;55.96;102266.22;2097332;28;3975;-77
2021/05/30 04:58:24;;;;;;;;;;;;;;;21.16;55.88;102269.91;2097586;28;3852;-75
2021/05/30 04:59:25;;;;;;;;;;;;;;;21.14;55.87;102275.91;2096048;28;3795;-77
2021/05/30 05:00:26;;;;;;;;;;;;;;;21.15;56.10;102271.09;2097230;28;3968;-73
2021/05/30 05:01:27;;;;;;;;;;;;;;;21.15;56.09;102274.78;2096959;28;3988;-78
2021/05/30 05:02:29;;;;;;;;;;;;;;;21.16;56.19;102272.75;2097248;28;3834;-74
2021/05/30 05:03:30;;;;;;;;;;;;;;;21.16;55.88;102276.44;2097026;28;3990;-78
2021/05/30 05:04:31;;;;;;;;;;;;;;;21.15;56.11;102277.63;2096920;28;4101;-78
2021/05/30 05:05:32;;;;;;;;;;;;;;;21.15;56.04;102274.78;2097091;28;4068;-78
2021/05/30 05:06:34;;;;;;;;;;;;;;;21.15;56.03;102276.78;2098240;28;4022;-78
2021/05/30 05:07:35;;;;;;;;;;;;;;;21.16;56.04;102284.97;2097469;28;3816;-77
2021/05/30 05:08:36;;;;;;;;;;;;;;;21.15;55.85;102273.94;2096265;28;3953;-74
2021/05/30 05:09:37;;;;;;;;;;;;;;;21.15;55.83;102274.78;2097773;28;3928;-80
2021/05/30 05:10:38;;;;;;;;;;;;;;;21.14;55.79;102273.06;2097569;28;3991;-73
2021/05/30 05:11:40;;;;;;;;;;;;;;;21.15;55.82;102279.63;2097237;28;4050;-75
2021/05/30 05:12:41;;;;;;;;;;;;;;;21.15;55.96;102274.78;2096823;28;4096;-87
2021/05/30 05:13:42;;;;;;;;;;;;;;;21.15;55.77;102280.47;2097936;28;5110;-86
2021/05/30 05:14:43;;;;;;;;;;;;;;;21.15;55.83;102283.31;2096999;28;3851;-79
2021/05/30 05:15:45;;;;;;;;;;;;;;;21.15;55.78;102276.78;2097768;28;4009;-81
2021/05/30 05:16:46;;;;;;;;;;;;;;;21.15;55.79;102280.47;2098424;28;3903;-73
2021/05/30 05:17:47;;;;;;;;;;;;;;;21.14;55.86;102275.91;2096094;28;4015;-77
2021/05/30 05:18:48;;;;;;;;;;;;;;;21.15;55.73;102274.78;2097817;28;3912;-80
2021/05/30 05:19:50;;;;;;;;;;;;;;;21.15;55.87;102282.47;2098135;28;4034;-78
2021/05/30 05:20:51;;;;;;;;;;;;;;;21.15;55.75;102271.91;2101176;28;3881;-87
2021/05/30 05:21:52;;;;;;;;;;;;;;;21.15;55.90;102276.78;2095851;28;4175;-87